sensor_id;sensor_type;location;lat;lon;timestamp;pressure;altitude;pressure_sealevel;temperature;humidity
50087;BME280;35967;50.718;7.050;2023-07-09T00:09:58;100942.53;;;23.79;65.98
50087;BME280;35967;50.718;7.050;2023-07-09T00:20:03;100940.28;;;23.86;65.00
50087;BME280;35967;50.718;7.050;2023-07-09T00:30:13;100935.94;;;23.73;64.42
50087;BME280;35967;50.718;7.050;2023-07-09T00:40:19;100942.03;;;23.74;65.88
50087;BME280;35967;50.718;7.050;2023-07-09T00:50:31;100926.72;;;23.43;67.06
50087;BME280;35967;50.718;7.050;2023-07-09T01:00:39;100921.63;;;23.29;67.91
50087;BME280;35967;50.718;7.050;2023-07-09T01:10:49;100924.69;;;23.23;68.76
50087;BME280;35967;50.718;7.050;2023-07-09T01:21:03;100925.66;;;22.96;69.30
50087;BME280;35967;50.718;7.050;2023-07-09T01:31:10;100921.06;;;22.74;70.49
50087;BME280;35967;50.718;7.050;2023-07-09T01:41:16;100930.94;;;22.57;70.93
50087;BME280;35967;50.718;7.050;2023-07-09T01:51:21;100938.38;;;22.37;71.77
50087;BME280;35967;50.718;7.050;2023-07-09T02:01:26;100940.97;;;22.25;72.90
50087;BME280;35967;50.718;7.050;2023-07-09T02:11:29;100940.03;;;22.26;72.83
50087;BME280;35967;50.718;7.050;2023-07-09T02:21:34;100937.50;;;22.11;73.17
50087;BME280;35967;50.718;7.050;2023-07-09T02:31:37;100942.34;;;22.17;73.27
50087;BME280;35967;50.718;7.050;2023-07-09T02:41:43;100946.53;;;22.20;71.97
50087;BME280;35967;50.718;7.050;2023-07-09T02:51:47;100960.25;;;22.11;72.92
50087;BME280;35967;50.718;7.050;2023-07-09T03:01:51;100954.03;;;21.99;72.83
50087;BME280;35967;50.718;7.050;2023-07-09T03:11:55;100959.91;;;22.02;73.14
50087;BME280;35967;50.718;7.050;2023-07-09T03:21:59;100972.97;;;21.62;74.84
50087;BME280;35967;50.718;7.050;2023-07-09T03:32:03;100976.78;;;21.56;74.98
50087;BME280;35967;50.718;7.050;2023-07-09T03:42:08;100980.34;;;21.55;76.25
50087;BME280;35967;50.718;7.050;2023-07-09T03:52:13;100995.91;;;21.58;76.30
50087;BME280;35967;50.718;7.050;2023-07-09T04:02:18;100998.41;;;21.60;76.66
50087;BME280;35967;50.718;7.050;2023-07-09T04:12:21;100998.69;;;21.55;76.55
50087;BME280;35967;50.718;7.050;2023-07-09T04:22:25;101012.16;;;21.49;77.33
50087;BME280;35967;50.718;7.050;2023-07-09T04:32:28;101009.81;;;21.73;77.86
50087;BME280;35967;50.718;7.050;2023-07-09T04:42:33;100996.66;;;21.88;77.88
50087;BME280;35967;50.718;7.050;2023-07-09T04:52:36;101002.81;;;22.14;77.40
50087;BME280;35967;50.718;7.050;2023-07-09T05:02:41;100997.06;;;22.49;77.47
50087;BME280;35967;50.718;7.050;2023-07-09T05:12:49;100998.97;;;22.73;76.44
50087;BME280;35967;50.718;7.050;2023-07-09T05:22:53;100995.28;;;23.02;76.36
50087;BME280;35967;50.718;7.050;2023-07-09T05:32:56;100988.16;;;23.54;73.26
50087;BME280;35967;50.718;7.050;2023-07-09T05:43:02;100978.31;;;24.17;68.29
50087;BME280;35967;50.718;7.050;2023-07-09T05:53:05;100976.41;;;24.66;63.33
50087;BME280;35967;50.718;7.050;2023-07-09T06:03:09;100984.09;;;25.03;61.33
50087;BME280;35967;50.718;7.050;2023-07-09T06:13:13;100985.13;;;25.46;59.42
50087;BME280;35967;50.718;7.050;2023-07-09T06:23:18;100985.75;;;25.82;57.57
50087;BME280;35967;50.718;7.050;2023-07-09T06:33:24;100980.69;;;26.23;55.65
50087;BME280;35967;50.718;7.050;2023-07-09T06:43:29;100981.47;;;26.66;54.32
50087;BME280;35967;50.718;7.050;2023-07-09T06:53:33;100987.84;;;27.16;52.93
50087;BME280;35967;50.718;7.050;2023-07-09T07:03:38;100986.22;;;27.34;52.15
50087;BME280;35967;50.718;7.050;2023-07-09T07:13:44;100986.56;;;27.61;52.00
50087;BME280;35967;50.718;7.050;2023-07-09T07:23:49;100970.84;;;27.98;50.96
50087;BME280;35967;50.718;7.050;2023-07-09T07:33:54;100968.16;;;28.38;50.26
50087;BME280;35967;50.718;7.050;2023-07-09T07:43:59;100976.28;;;28.84;49.99
50087;BME280;35967;50.718;7.050;2023-07-09T07:54:02;100962.16;;;29.39;48.87
50087;BME280;35967;50.718;7.050;2023-07-09T08:04:07;100961.72;;;29.80;48.13
50087;BME280;35967;50.718;7.050;2023-07-09T08:14:10;100959.19;;;30.14;46.69
50087;BME280;35967;50.718;7.050;2023-07-09T08:24:15;100949.66;;;30.56;46.46
50087;BME280;35967;50.718;7.050;2023-07-09T08:34:18;100941.38;;;31.02;45.37
50087;BME280;35967;50.718;7.050;2023-07-09T08:44:34;100939.47;;;31.12;44.08
50087;BME280;35967;50.718;7.050;2023-07-09T08:54:43;100926.84;;;31.39;43.84
50087;BME280;35967;50.718;7.050;2023-07-09T09:04:49;100923.03;;;32.00;43.17
50087;BME280;35967;50.718;7.050;2023-07-09T09:14:57;100907.09;;;32.56;41.48
50087;BME280;35967;50.718;7.050;2023-07-09T09:25:05;100905.31;;;32.88;40.02
50087;BME280;35967;50.718;7.050;2023-07-09T09:35:16;100903.91;;;33.47;39.85
50087;BME280;35967;50.718;7.050;2023-07-09T09:45:26;100897.78;;;33.85;39.64
50087;BME280;35967;50.718;7.050;2023-07-09T09:55:31;100887.63;;;34.70;31.67
50087;BME280;35967;50.718;7.050;2023-07-09T10:05:41;100866.81;;;35.02;29.60
50087;BME280;35967;50.718;7.050;2023-07-09T10:15:58;100851.03;;;35.35;28.37
50087;BME280;35967;50.718;7.050;2023-07-09T10:26:10;100857.72;;;36.03;27.49
50087;BME280;35967;50.718;7.050;2023-07-09T10:36:27;100862.59;;;36.28;27.38
50087;BME280;35967;50.718;7.050;2023-07-09T10:46:37;100852.88;;;36.69;26.49
50087;BME280;35967;50.718;7.050;2023-07-09T10:56:40;100843.03;;;37.16;26.47
50087;BME280;35967;50.718;7.050;2023-07-09T11:06:49;100846.94;;;37.54;25.05
50087;BME280;35967;50.718;7.050;2023-07-09T11:16:56;100830.22;;;37.65;26.41
50087;BME280;35967;50.718;7.050;2023-07-09T11:27:02;100809.97;;;37.56;25.80
50087;BME280;35967;50.718;7.050;2023-07-09T11:37:22;100816.53;;;37.80;25.84
50087;BME280;35967;50.718;7.050;2023-07-09T11:47:33;100815.72;;;38.39;25.42
50087;BME280;35967;50.718;7.050;2023-07-09T11:57:39;100808.66;;;38.44;24.78
50087;BME280;35967;50.718;7.050;2023-07-09T12:07:44;100804.34;;;37.84;25.48
50087;BME280;35967;50.718;7.050;2023-07-09T12:18:01;100813.13;;;36.37;26.67
50087;BME280;35967;50.718;7.050;2023-07-09T12:28:14;100803.34;;;35.74;27.46
50087;BME280;35967;50.718;7.050;2023-07-09T12:38:19;100774.59;;;35.54;26.61
50087;BME280;35967;50.718;7.050;2023-07-09T12:48:26;100757.56;;;37.20;25.59
50087;BME280;35967;50.718;7.050;2023-07-09T12:58:37;100746.63;;;35.64;27.25
50087;BME280;35967;50.718;7.050;2023-07-09T13:08:43;100731.44;;;36.13;26.21
50087;BME280;35967;50.718;7.050;2023-07-09T13:18:46;100718.44;;;35.33;27.19
50087;BME280;35967;50.718;7.050;2023-07-09T13:28:50;100725.25;;;35.07;26.46
50087;BME280;35967;50.718;7.050;2023-07-09T13:38:53;100710.78;;;35.30;27.26
50087;BME280;35967;50.718;7.050;2023-07-09T13:48:58;100713.63;;;35.21;26.71
50087;BME280;35967;50.718;7.050;2023-07-09T13:59:05;100725.66;;;35.04;27.28
50087;BME280;35967;50.718;7.050;2023-07-09T14:09:15;100732.16;;;34.51;29.11
50087;BME280;35967;50.718;7.050;2023-07-09T14:19:21;100760.38;;;33.87;31.15
50087;BME280;35967;50.718;7.050;2023-07-09T14:29:26;100784.91;;;33.38;32.18
50087;BME280;35967;50.718;7.050;2023-07-09T14:39:29;100856.69;;;31.73;37.79
50087;BME280;35967;50.718;7.050;2023-07-09T14:49:36;100899.69;;;29.08;52.15
50087;BME280;35967;50.718;7.050;2023-07-09T14:59:39;100997.03;;;28.21;58.87
50087;BME280;35967;50.718;7.050;2023-07-09T15:10:01;101105.59;;;27.39;66.49
50087;BME280;35967;50.718;7.050;2023-07-09T15:20:12;101122.72;;;27.66;68.19
50087;BME280;35967;50.718;7.050;2023-07-09T15:30:20;101060.81;;;27.07;77.36
50087;BME280;35967;50.718;7.050;2023-07-09T15:40:25;101058.94;;;26.88;82.31
50087;BME280;35967;50.718;7.050;2023-07-09T15:50:33;101069.09;;;26.71;83.73
50087;BME280;35967;50.718;7.050;2023-07-09T16:00:36;101026.31;;;26.35;85.67
50087;BME280;35967;50.718;7.050;2023-07-09T16:10:41;101007.00;;;26.02;89.65
50087;BME280;35967;50.718;7.050;2023-07-09T16:20:45;100989.88;;;25.75;90.49
50087;BME280;35967;50.718;7.050;2023-07-09T16:30:50;100959.25;;;25.51;91.28
50087;BME280;35967;50.718;7.050;2023-07-09T16:40:56;100918.06;;;25.39;92.81
50087;BME280;35967;50.718;7.050;2023-07-09T16:51:01;100928.13;;;25.34;93.59
50087;BME280;35967;50.718;7.050;2023-07-09T17:01:05;100932.69;;;25.76;91.80
50087;BME280;35967;50.718;7.050;2023-07-09T17:11:12;100916.84;;;25.76;90.67
50087;BME280;35967;50.718;7.050;2023-07-09T17:21:15;100904.91;;;25.93;89.90
50087;BME280;35967;50.718;7.050;2023-07-09T17:31:20;100905.56;;;25.85;86.91
50087;BME280;35967;50.718;7.050;2023-07-09T17:41:24;100902.44;;;26.12;86.14
50087;BME280;35967;50.718;7.050;2023-07-09T17:51:35;100892.19;;;26.19;89.59
50087;BME280;35967;50.718;7.050;2023-07-09T18:01:39;100911.69;;;26.28;88.48
50087;BME280;35967;50.718;7.050;2023-07-09T18:11:44;100906.28;;;26.08;89.31
50087;BME280;35967;50.718;7.050;2023-07-09T18:21:48;100903.88;;;26.05;90.03
50087;BME280;35967;50.718;7.050;2023-07-09T18:31:54;100903.94;;;25.94;91.25
50087;BME280;35967;50.718;7.050;2023-07-09T18:41:57;100901.19;;;25.95;91.49
50087;BME280;35967;50.718;7.050;2023-07-09T18:52:09;100893.97;;;25.44;95.13
50087;BME280;35967;50.718;7.050;2023-07-09T19:02:16;100880.94;;;25.31;95.35
50087;BME280;35967;50.718;7.050;2023-07-09T19:36:30;100912.56;;;25.31;93.87
50087;BME280;35967;50.718;7.050;2023-07-09T19:46:33;100933.56;;;24.98;94.32
50087;BME280;35967;50.718;7.050;2023-07-09T19:56:38;100948.25;;;25.24;93.32
50087;BME280;35967;50.718;7.050;2023-07-09T20:06:41;100943.84;;;25.13;93.51
50087;BME280;35967;50.718;7.050;2023-07-09T20:16:45;100955.59;;;24.86;94.90
50087;BME280;35967;50.718;7.050;2023-07-09T20:26:48;100966.63;;;24.80;95.28
50087;BME280;35967;50.718;7.050;2023-07-09T20:36:52;100975.06;;;24.61;95.65
50087;BME280;35967;50.718;7.050;2023-07-09T20:46:55;100984.25;;;24.55;96.60
50087;BME280;35967;50.718;7.050;2023-07-09T20:57:00;100984.88;;;24.47;96.72
50087;BME280;35967;50.718;7.050;2023-07-09T21:07:08;100988.63;;;24.67;95.22
50087;BME280;35967;50.718;7.050;2023-07-09T21:17:17;100990.63;;;24.17;98.17
50087;BME280;35967;50.718;7.050;2023-07-09T21:27:23;100996.44;;;23.85;99.51
50087;BME280;35967;50.718;7.050;2023-07-09T21:37:28;101009.78;;;24.30;96.69
50087;BME280;35967;50.718;7.050;2023-07-09T21:47:35;101028.59;;;24.01;99.04
50087;BME280;35967;50.718;7.050;2023-07-09T21:57:39;101033.38;;;24.07;98.69
50087;BME280;35967;50.718;7.050;2023-07-09T22:07:43;101037.31;;;23.89;98.78
50087;BME280;35967;50.718;7.050;2023-07-09T22:17:48;101040.19;;;23.99;98.86
50087;BME280;35967;50.718;7.050;2023-07-09T22:27:52;101045.81;;;23.92;98.48
50087;BME280;35967;50.718;7.050;2023-07-09T22:37:59;101037.22;;;24.03;97.52
50087;BME280;35967;50.718;7.050;2023-07-09T22:48:06;101048.69;;;23.89;98.05
50087;BME280;35967;50.718;7.050;2023-07-09T22:58:15;101065.91;;;23.69;99.64
50087;BME280;35967;50.718;7.050;2023-07-09T23:08:21;101063.31;;;23.81;99.84
50087;BME280;35967;50.718;7.050;2023-07-09T23:18:26;101078.31;;;23.67;99.94
50087;BME280;35967;50.718;7.050;2023-07-09T23:28:30;101062.03;;;23.62;100.00
50087;BME280;35967;50.718;7.050;2023-07-09T23:38:34;101053.75;;;23.55;100.00
50087;BME280;35967;50.718;7.050;2023-07-09T23:48:39;101052.28;;;23.51;100.00
50087;BME280;35967;50.718;7.050;2023-07-09T23:58:49;101052.59;;;23.59;100.00
